Observation data for Plainview on 05/24/2020      Previous  Date  Next       Current Mesonet Observations  Soil Data  Daily Summary Page  Observations in Plain Language
KPVS 240500Z 16010G15KT 19/12 A2983 RMK A01 T01910117  RH  063%=      5-min Rain = 0
KPVS 240505Z 15009KT 19/12 A2983 RMK A01 T01910116  RH  063%=      5-min Rain = 0
KPVS 240510Z 16009KT 19/12 A2983 RMK A01 T01920116  RH  063%=      5-min Rain = 0
KPVS 240515Z 16008G13KT 19/12 A2984 RMK A01 T01910117  RH  063%=      5-min Rain = 0
KPVS 240520Z 16008KT 19/12 A2984 RMK A01 T01890118  RH  065%=      5-min Rain = 0
KPVS 240525Z 15009KT 19/12 A2984 RMK A01 T01880117  RH  065%=      5-min Rain = 0
KPVS 240530Z 17007KT 19/12 A2984 RMK A01 T01870118  RH  065%=      5-min Rain = 0
KPVS 240535Z 17008KT 19/12 A2984 RMK A01 T01850119  RH  066%=      5-min Rain = 0
KPVS 240540Z 16009KT 19/12 A2985 RMK A01 T01860118  RH  066%=      5-min Rain = 0
KPVS 240545Z 16008G13KT 19/12 A2985 RMK A01 T01870117  RH  065%=      5-min Rain = 0
KPVS 240550Z 17008KT 19/12 A2985 RMK A01 T01870117  RH  065%=      5-min Rain = 0
KPVS 240555Z 18007KT 19/12 A2985 RMK A01 T01850119  RH  066%=      5-min Rain = 0
KPVS 240600Z 16007KT 18/12 A2985 RMK A01 T01840119  RH  067%=      5-min Rain = 0
KPVS 240605Z 16007KT 19/12 A2985 RMK A01 T01850117  RH  066%=      5-min Rain = 0
KPVS 240610Z 17007KT 19/12 A2985 RMK A01 T01850118  RH  066%=      5-min Rain = 0
KPVS 240615Z 15007KT 18/12 A2985 RMK A01 T01840117  RH  066%=      5-min Rain = 0
KPVS 240620Z 18008KT 19/12 A2985 RMK A01 T01860116  RH  065%=      5-min Rain = 0
KPVS 240625Z 19007KT 18/12 A2985 RMK A01 T01820120  RH  069%=      5-min Rain = 0
KPVS 240630Z 18007KT 18/12 A2985 RMK A01 T01790121  RH  070%=      5-min Rain = 0
KPVS 240635Z 18008KT 18/12 A2985 RMK A01 T01790120  RH  069%=      5-min Rain = 0
KPVS 240640Z 17009G15KT 18/12 A2985 RMK A01 T01810119  RH  068%=      5-min Rain = 0
KPVS 240645Z 17010KT 18/12 A2985 RMK A01 T01830118  RH  067%=      5-min Rain = 0
KPVS 240650Z 17008KT 18/12 A2985 RMK A01 T01830119  RH  068%=      5-min Rain = 0
KPVS 240655Z 18010G15KT 18/12 A2985 RMK A01 T01820120  RH  068%=      5-min Rain = 0
KPVS 240700Z 16010G15KT 18/12 A2984 RMK A01 T01830121  RH  068%=      5-min Rain = 0
KPVS 240705Z 18008KT 18/12 A2985 RMK A01 T01820122  RH  069%=      5-min Rain = 0
KPVS 240710Z 16007KT 18/12 A2985 RMK A01 T01800123  RH  071%=      5-min Rain = 0
KPVS 240715Z 16010G15KT 18/12 A2985 RMK A01 T01790124  RH  072%=      5-min Rain = 0
KPVS 240720Z 16008KT 18/13 A2985 RMK A01 T01790125  RH  072%=      5-min Rain = 0
KPVS 240725Z 16009G14KT 18/13 A2985 RMK A01 T01770126  RH  073%=      5-min Rain = 0
KPVS 240730Z 16008KT 18/13 A2985 RMK A01 T01760128  RH  075%=      5-min Rain = 0
KPVS 240735Z 17007G13KT 17/13 A2985 RMK A01 T01740130  RH  077%=      5-min Rain = 0
KPVS 240740Z 17007KT 17/13 A2985 RMK A01 T01710130  RH  078%=      5-min Rain = 0
KPVS 240745Z 17007KT 17/13 A2985 RMK A01 T01690132  RH  080%=      5-min Rain = 0
KPVS 240750Z 16007KT 17/13 A2985 RMK A01 T01670132  RH  081%=      5-min Rain = 0
KPVS 240755Z 15007KT 17/13 A2985 RMK A01 T01660132  RH  082%=      5-min Rain = 0
KPVS 240800Z 16007KT 17/13 A2985 RMK A01 T01650132  RH  083%=      5-min Rain = 0
KPVS 240805Z 16008KT 16/13 A2985 RMK A01 T01630132  RH  084%=      5-min Rain = 0
KPVS 240810Z 15006KT 16/13 A2985 RMK A01 T01620132  RH  084%=      5-min Rain = 0
KPVS 240815Z 16007KT 16/13 A2985 RMK A01 T01600132  RH  085%=      5-min Rain = 0
KPVS 240820Z 16008KT 16/13 A2985 RMK A01 T01600132  RH  086%=      5-min Rain = 0
KPVS 240825Z 16007KT 16/13 A2985 RMK A01 T01590132  RH  086%=      5-min Rain = 0
KPVS 240830Z 17007KT 16/13 A2985 RMK A01 T01580132  RH  086%=      5-min Rain = 0
KPVS 240835Z 17007KT 16/13 A2985 RMK A01 T01560131  RH  087%=      5-min Rain = 0
KPVS 240840Z 16006KT 16/13 A2985 RMK A01 T01550131  RH  087%=      5-min Rain = 0
KPVS 240845Z 17007KT 15/13 A2985 RMK A01 T01540131  RH  088%=      5-min Rain = 0
KPVS 240850Z 17006KT 15/13 A2985 RMK A01 T01530131  RH  088%=      5-min Rain = 0
KPVS 240855Z 17006KT 15/13 A2985 RMK A01 T01520131  RH  089%=      5-min Rain = 0
KPVS 240900Z 17006KT 15/13 A2985 RMK A01 T01510130  RH  089%=      5-min Rain = 0
KPVS 240905Z 17007KT 15/13 A2985 RMK A01 T01500130  RH  089%=      5-min Rain = 0
KPVS 240910Z 17006KT 15/13 A2985 RMK A01 T01490129  RH  090%=      5-min Rain = 0
KPVS 240915Z 16006KT 15/13 A2985 RMK A01 T01480129  RH  090%=      5-min Rain = 0
KPVS 240920Z 16006KT 15/13 A2985 RMK A01 T01480129  RH  090%=      5-min Rain = 0
KPVS 240925Z 16005KT 15/13 A2985 RMK A01 T01480129  RH  090%=      5-min Rain = 0
KPVS 240930Z 16005KT 15/13 A2985 RMK A01 T01480128  RH  090%=      5-min Rain = 0
KPVS 240935Z 16005KT 15/13 A2985 RMK A01 T01480128  RH  089%=      5-min Rain = 0
KPVS 240940Z 16005KT 15/13 A2985 RMK A01 T01480127  RH  089%=      5-min Rain = 0
KPVS 240945Z 15006KT 15/13 A2985 RMK A01 T01480126  RH  088%=      5-min Rain = 0
KPVS 240950Z 14007KT 15/13 A2985 RMK A01 T01490125  RH  087%=      5-min Rain = 0
KPVS 240955Z 14007KT 15/12 A2985 RMK A01 T01500124  RH  086%=      5-min Rain = 0
KPVS 241000Z 14006KT 15/12 A2985 RMK A01 T01500124  RH  086%=      5-min Rain = 0
KPVS 241005Z 14007KT 15/12 A2985 RMK A01 T01510124  RH  086%=      5-min Rain = 0
KPVS 241010Z 14007KT 15/12 A2985 RMK A01 T01510124  RH  086%=      5-min Rain = 0
KPVS 241015Z 15006KT 15/12 A2985 RMK A01 T01500124  RH  086%=      5-min Rain = 0
KPVS 241020Z 15006KT 15/12 A2985 RMK A01 T01490123  RH  086%=      5-min Rain = 0
KPVS 241025Z 15005KT 15/12 A2986 RMK A01 T01480123  RH  086%=      5-min Rain = 0
KPVS 241030Z 15006KT 15/12 A2986 RMK A01 T01480122  RH  086%=      5-min Rain = 0
KPVS 241035Z 15007G12KT 15/12 A2985 RMK A01 T01490122  RH  085%=      5-min Rain = 0
KPVS 241040Z 16008KT 15/12 A2985 RMK A01 T01500122  RH  085%=      5-min Rain = 0
KPVS 241045Z 16007G12KT 15/12 A2985 RMK A01 T01510121  RH  084%=      5-min Rain = 0
KPVS 241050Z 16008KT 15/12 A2985 RMK A01 T01510121  RH  084%=      5-min Rain = 0
KPVS 241055Z 16007KT 15/12 A2985 RMK A01 T01520121  RH  083%=      5-min Rain = 0
KPVS 241100Z 16007KT 15/12 A2985 RMK A01 T01500121  RH  084%=      5-min Rain = 0
KPVS 241105Z 16007KT 15/12 A2985 RMK A01 T01490121  RH  085%=      5-min Rain = 0
KPVS 241110Z 16008KT 15/12 A2985 RMK A01 T01490121  RH  085%=      5-min Rain = 0
KPVS 241115Z 16008KT 15/12 A2985 RMK A01 T01490120  RH  085%=      5-min Rain = 0
KPVS 241120Z 17008KT 15/12 A2985 RMK A01 T01490120  RH  085%=      5-min Rain = 0
KPVS 241125Z 17007KT 15/12 A2985 RMK A01 T01490120  RH  084%=      5-min Rain = 0
KPVS 241130Z 17008KT 15/12 A2985 RMK A01 T01490120  RH  085%=      5-min Rain = 0
KPVS 241135Z 18008KT 15/12 A2985 RMK A01 T01500121  RH  084%=      5-min Rain = 0
KPVS 241140Z 19007KT 15/12 A2985 RMK A01 T01510121  RH  083%=      5-min Rain = 0
KPVS 241145Z 18007KT 15/12 A2985 RMK A01 T01510121  RH  083%=      5-min Rain = 0
KPVS 241150Z 18006KT 15/12 A2985 RMK A01 T01500121  RH  084%=      5-min Rain = 0
KPVS 241155Z 18007KT 15/12 A2985 RMK A01 T01490121  RH  085%=      5-min Rain = 0
KPVS 241200Z 17006KT 15/12 A2985 RMK A01 T01480121  RH  085%=      5-min Rain = 0
KPVS 241205Z 17006KT 15/12 A2985 RMK A01 T01480121  RH  085%=      5-min Rain = 0
KPVS 241210Z 17006KT 15/12 A2985 RMK A01 T01470121  RH  086%=      5-min Rain = 0
KPVS 241215Z 17005KT 15/12 A2985 RMK A01 T01480121  RH  086%=      5-min Rain = 0
KPVS 241220Z 16004KT 15/12 A2986 RMK A01 T01490122  RH  085%=      5-min Rain = 0
KPVS 241225Z 16004KT 15/12 A2986 RMK A01 T01500122  RH  085%=      5-min Rain = 0
KPVS 241230Z 17004KT 15/12 A2986 RMK A01 T01510122  RH  085%=      5-min Rain = 0
KPVS 241235Z 17004KT 15/12 A2986 RMK A01 T01520124  RH  085%=      5-min Rain = 0
KPVS 241240Z 18004KT 15/13 A2986 RMK A01 T01540125  RH  084%=      5-min Rain = 0
KPVS 241245Z 19004KT 16/13 A2986 RMK A01 T01560126  RH  084%=      5-min Rain = 0
KPVS 241250Z 20004KT 16/13 A2986 RMK A01 T01580127  RH  083%=      5-min Rain = 0
KPVS 241255Z 20005KT 16/13 A2986 RMK A01 T01610129  RH  083%=      5-min Rain = 0
KPVS 241300Z 20005KT 16/13 A2986 RMK A01 T01640131  RH  082%=      5-min Rain = 0
KPVS 241305Z 19007KT 17/13 A2986 RMK A01 T01680132  RH  081%=      5-min Rain = 0
KPVS 241310Z 19008KT 17/13 A2986 RMK A01 T01720133  RH  079%=      5-min Rain = 0
KPVS 241315Z 19010KT 18/13 A2986 RMK A01 T01760134  RH  078%=      5-min Rain = 0
KPVS 241320Z 19009KT 18/14 A2986 RMK A01 T01800136  RH  077%=      5-min Rain = 0
KPVS 241325Z 19011G16KT 18/14 A2986 RMK A01 T01820136  RH  076%=      5-min Rain = 0
KPVS 241330Z 19012KT 18/14 A2986 RMK A01 T01840137  RH  076%=      5-min Rain = 0
KPVS 241335Z 19013KT 19/14 A2986 RMK A01 T01850137  RH  075%=      5-min Rain = 0
KPVS 241340Z 19013G19KT 19/14 A2985 RMK A01 T01880138  RH  074%=      5-min Rain = 0
KPVS 241345Z 19013G18KT 19/14 A2985 RMK A01 T01900138  RH  073%=      5-min Rain = 0
KPVS 241350Z 19013G18KT 19/14 A2985 RMK A01 T01920140  RH  073%=      5-min Rain = 0
KPVS 241355Z 19013KT 20/14 A2985 RMK A01 T01960141  RH  072%=      5-min Rain = 0
KPVS 241400Z 19015G20KT 20/14 A2985 RMK A01 T01980141  RH  071%=      5-min Rain = 0
KPVS 241405Z 19014KT 20/14 A2985 RMK A01 T02010142  RH  070%=      5-min Rain = 0
KPVS 241410Z 19015G20KT 20/14 A2985 RMK A01 T02030142  RH  069%=      5-min Rain = 0
KPVS 241415Z 19016G22KT 20/14 A2985 RMK A01 T02040142  RH  069%=      5-min Rain = 0
KPVS 241420Z 19014G20KT 20/14 A2985 RMK A01 T02040142  RH  069%=      5-min Rain = 0
KPVS 241425Z 19016G21KT 21/14 A2985 RMK A01 T02060142  RH  068%=      5-min Rain = 0
KPVS 241430Z 19014G19KT 21/14 A2985 RMK A01 T02070143  RH  068%=      5-min Rain = 0
KPVS 241435Z 19014G19KT 21/15 A2985 RMK A01 T02100145  RH  068%=      5-min Rain = 0
KPVS 241440Z 19015KT 21/15 A2985 RMK A01 T02110145  RH  067%=      5-min Rain = 0
KPVS 241445Z 19014G22KT 21/15 A2985 RMK A01 T02140145  RH  066%=      5-min Rain = 0
KPVS 241450Z 19014G19KT 22/15 A2985 RMK A01 T02150146  RH  066%=      5-min Rain = 0
KPVS 241455Z 19016G22KT 22/15 A2985 RMK A01 T02160145  RH  066%=      5-min Rain = 0
KPVS 241500Z 19015G23KT 22/15 A2985 RMK A01 T02170146  RH  065%=      5-min Rain = 0
KPVS 241505Z 19015G22KT 22/15 A2985 RMK A01 T02190147  RH  065%=      5-min Rain = 0
KPVS 241510Z 19015G21KT 22/15 A2985 RMK A01 T02200147  RH  065%=      5-min Rain = 0
KPVS 241515Z 20014G20KT 22/15 A2984 RMK A01 T02220148  RH  064%=      5-min Rain = 0
KPVS 241520Z 20014G20KT 22/15 A2984 RMK A01 T02240148  RH  064%=      5-min Rain = 0
KPVS 241525Z 19016G22KT 23/15 A2984 RMK A01 T02250148  RH  063%=      5-min Rain = 0
KPVS 241530Z 21014G21KT 23/15 A2984 RMK A01 T02270149  RH  063%=      5-min Rain = 0
KPVS 241535Z 20014G20KT 23/15 A2984 RMK A01 T02300150  RH  062%=      5-min Rain = 0
KPVS 241540Z 21014G21KT 23/15 A2984 RMK A01 T02310149  RH  061%=      5-min Rain = 0
KPVS 241545Z 20015G21KT 23/15 A2984 RMK A01 T02330149  RH  061%=      5-min Rain = 0
KPVS 241550Z 21015G20KT 23/15 A2984 RMK A01 T02340150  RH  061%=      5-min Rain = 0
KPVS 241555Z 21014G19KT 23/15 A2984 RMK A01 T02330149  RH  060%=      5-min Rain = 0
KPVS 241600Z 20015G20KT 24/15 A2984 RMK A01 T02370151  RH  060%=      5-min Rain = 0
KPVS 241605Z 21015G20KT 24/15 A2984 RMK A01 T02380149  RH  059%=      5-min Rain = 0
KPVS 241610Z 21015G21KT 24/15 A2984 RMK A01 T02400151  RH  059%=      5-min Rain = 0
KPVS 241615Z 21012G20KT 24/15 A2984 RMK A01 T02420151  RH  058%=      5-min Rain = 0
KPVS 241620Z 21013G18KT 24/15 A2984 RMK A01 T02430150  RH  057%=      5-min Rain = 0
KPVS 241625Z 21011G17KT 25/15 A2984 RMK A01 T02450152  RH  058%=      5-min Rain = 0
KPVS 241630Z 20014G19KT 25/15 A2984 RMK A01 T02480153  RH  057%=      5-min Rain = 0
KPVS 241635Z 20012G20KT 25/15 A2984 RMK A01 T02480154  RH  057%=      5-min Rain = 0
KPVS 241640Z 22011G18KT 25/15 A2984 RMK A01 T02480148  RH  055%=      5-min Rain = 0
KPVS 241645Z 22012G18KT 25/15 A2984 RMK A01 T02510149  RH  054%=      5-min Rain = 0
KPVS 241650Z 21012G18KT 25/15 A2984 RMK A01 T02490147  RH  054%=      5-min Rain = 0
KPVS 241655Z 21012G17KT 25/15 A2984 RMK A01 T02530147  RH  053%=      5-min Rain = 0
KPVS 241700Z 20012G19KT 25/15 A2984 RMK A01 T02540149  RH  053%=      5-min Rain = 0
KPVS 241705Z 20011G17KT 26/15 A2984 RMK A01 T02560150  RH  053%=      5-min Rain = 0
KPVS 241710Z 19011G16KT 26/15 A2984 RMK A01 T02570150  RH  053%=      5-min Rain = 0
KPVS 241715Z 21011G17KT 26/15 A2984 RMK A01 T02590147  RH  051%=      5-min Rain = 0
KPVS 241720Z 20010G17KT 26/15 A2984 RMK A01 T02590148  RH  051%=      5-min Rain = 0
KPVS 241725Z 21010G17KT 26/15 A2984 RMK A01 T02610148  RH  051%=      5-min Rain = 0
KPVS 241730Z 21010G16KT 26/15 A2984 RMK A01 T02630148  RH  050%=      5-min Rain = 0
KPVS 241735Z 20010KT 27/15 A2984 RMK A01 T02650149  RH  050%=      5-min Rain = 0
KPVS 241740Z 20011G16KT 27/15 A2984 RMK A01 T02660151  RH  050%=      5-min Rain = 0
KPVS 241745Z 19010KT 27/15 A2984 RMK A01 T02660150  RH  050%=      5-min Rain = 0
KPVS 241750Z 18010G16KT 27/15 A2984 RMK A01 T02680151  RH  050%=      5-min Rain = 0
KPVS 241755Z 18010G17KT 27/15 A2984 RMK A01 T02710152  RH  049%=      5-min Rain = 0
KPVS 241800Z 19008G15KT 27/15 A2984 RMK A01 T02720150  RH  048%=      5-min Rain = 0
KPVS 241805Z 18009KT 27/15 A2983 RMK A01 T02710150  RH  049%=      5-min Rain = 0
KPVS 241810Z 19009G14KT 27/15 A2983 RMK A01 T02730150  RH  048%=      5-min Rain = 0
KPVS 241815Z 18011G16KT 28/15 A2983 RMK A01 T02750152  RH  048%=      5-min Rain = 0
KPVS 241820Z 20010G15KT 27/15 A2983 RMK A01 T02720151  RH  048%=      5-min Rain = 0
KPVS 241825Z 18008G14KT 27/15 A2983 RMK A01 T02730149  RH  048%=      5-min Rain = 0
KPVS 241830Z 19010KT 28/15 A2982 RMK A01 T02750149  RH  047%=      5-min Rain = 0
KPVS 241835Z 21009G16KT 28/15 A2982 RMK A01 T02750146  RH  046%=      5-min Rain = 0
KPVS 241840Z 19009G14KT 28/15 A2982 RMK A01 T02780150  RH  047%=      5-min Rain = 0
KPVS 241845Z 18009KT 28/15 A2982 RMK A01 T02820150  RH  045%=      5-min Rain = 0
KPVS 241850Z 18009G15KT 28/15 A2982 RMK A01 T02810145  RH  044%=      5-min Rain = 0
KPVS 241855Z 18009G15KT 28/15 A2982 RMK A01 T02820145  RH  044%=      5-min Rain = 0
KPVS 241900Z 20008G15KT 29/15 A2981 RMK A01 T02860145  RH  043%=      5-min Rain = 0
KPVS 241905Z 21007G13KT 29/14 A2981 RMK A01 T02860142  RH  042%=      5-min Rain = 0
KPVS 241910Z 18009KT 29/15 A2981 RMK A01 T02850149  RH  044%=      5-min Rain = 0
KPVS 241915Z 16009KT 29/15 A2981 RMK A01 T02850154  RH  046%=      5-min Rain = 0
KPVS 241920Z 19009G23KT 28/15 A298 RMK A01 T02840147  RH  044%=      5-min Rain = 0
KPVS 241925Z 17009G14KT 29/16 A298 RMK A01 T02890155  RH  045%=      5-min Rain = 0
KPVS 241930Z 16007KT 29/15 A298 RMK A01 T02880153  RH  045%=      5-min Rain = 0
KPVS 241935Z 16009G15KT 29/15 A298 RMK A01 T02870150  RH  044%=      5-min Rain = 0
KPVS 241940Z 17009KT 29/15 A298 RMK A01 T02900150  RH  043%=      5-min Rain = 0
KPVS 241945Z 15008KT 29/15 A298 RMK A01 T02910145  RH  042%=      5-min Rain = 0
KPVS 241950Z 17008G14KT 29/15 A2979 RMK A01 T02920147  RH  042%=      5-min Rain = 0
KPVS 241955Z 17008G14KT 29/14 A2979 RMK A01 T02930144  RH  041%=      5-min Rain = 0
KPVS 242000Z 15005G10KT 29/15 A2979 RMK A01 T02920149  RH  043%=      5-min Rain = 0
KPVS 242005Z 17010G15KT 29/15 A2979 RMK A01 T02940145  RH  041%=      5-min Rain = 0
KPVS 242010Z 16009G15KT 29/14 A2979 RMK A01 T02930143  RH  041%=      5-min Rain = 0
KPVS 242015Z 17008G13KT 29/14 A2978 RMK A01 T02920141  RH  040%=      5-min Rain = 0
KPVS 242020Z 16009G14KT 30/14 A2978 RMK A01 T02970144  RH  040%=      5-min Rain = 0
KPVS 242025Z 17008G14KT 30/14 A2978 RMK A01 T02980140  RH  039%=      5-min Rain = 0
KPVS 242030Z 15008KT 30/15 A2978 RMK A01 T02980146  RH  040%=      5-min Rain = 0
KPVS 242035Z 17010G16KT 30/14 A2978 RMK A01 T02980144  RH  040%=      5-min Rain = 0
KPVS 242040Z 15007KT 30/15 A2977 RMK A01 T02990148  RH  041%=      5-min Rain = 0
KPVS 242045Z 17010G16KT 30/14 A2977 RMK A01 T02990142  RH  039%=      5-min Rain = 0
KPVS 242050Z 18011G18KT 30/14 A2977 RMK A01 T02990141  RH  039%=      5-min Rain = 0
KPVS 242055Z 15009KT 30/14 A2976 RMK A01 T02970141  RH  039%=      5-min Rain = 0
KPVS 242100Z 15012G17KT 30/15 A2976 RMK A01 T02980146  RH  040%=      5-min Rain = 0
KPVS 242105Z 16008KT 30/15 A2976 RMK A01 T03000146  RH  040%=      5-min Rain = 0
KPVS 242110Z 15010G15KT 30/15 A2976 RMK A01 T03020147  RH  040%=      5-min Rain = 0
KPVS 242115Z 17010G17KT 30/15 A2975 RMK A01 T03010148  RH  040%=      5-min Rain = 0
KPVS 242120Z 18012G19KT 30/15 A2975 RMK A01 T02990148  RH  041%=      5-min Rain = 0
KPVS 242125Z 15010G17KT 30/15 A2975 RMK A01 T02990153  RH  042%=      5-min Rain = 0
KPVS 242130Z 14009KT 30/15 A2974 RMK A01 T03000152  RH  042%=      5-min Rain = 0
KPVS 242135Z 16009KT 30/15 A2974 RMK A01 T03030147  RH  040%=      5-min Rain = 0
KPVS 242140Z 16010G18KT 30/15 A2974 RMK A01 T03030148  RH  040%=      5-min Rain = 0
KPVS 242145Z 16009G14KT 30/15 A2973 RMK A01 T03030146  RH  039%=      5-min Rain = 0
KPVS 242150Z 14010KT 30/15 A2973 RMK A01 T03020145  RH  039%=      5-min Rain = 0
KPVS 242155Z 17011G17KT 30/15 A2972 RMK A01 T03020145  RH  039%=      5-min Rain = 0
KPVS 242200Z 17009KT 30/14 A2973 RMK A01 T03010140  RH  038%=      5-min Rain = 0
KPVS 242205Z 17008G13KT 30/14 A2973 RMK A01 T03010139  RH  038%=      5-min Rain = 0
KPVS 242210Z 20008KT 30/14 A2973 RMK A01 T02950142  RH  040%=      5-min Rain = 0
KPVS 242215Z 21009KT 29/14 A2972 RMK A01 T02900137  RH  040%=      5-min Rain = 0
KPVS 242220Z 21005KT 29/13 A2972 RMK A01 T02930129  RH  037%=      5-min Rain = 0
KPVS 242225Z 15005KT 30/13 A297 RMK A01 T02960129  RH  037%=      5-min Rain = 0
KPVS 242230Z 14005KT 30/13 A297 RMK A01 T02980129  RH  036%=      5-min Rain = 0
KPVS 242235Z 16007G12KT 30/13 A297 RMK A01 T03010130  RH  036%=      5-min Rain = 0
KPVS 242240Z 19006KT 30/13 A2969 RMK A01 T03000129  RH  036%=      5-min Rain = 0
KPVS 242245Z 15006KT 30/13 A2969 RMK A01 T03000128  RH  036%=      5-min Rain = 0
KPVS 242250Z 12006G11KT 29/13 A2969 RMK A01 T02930128  RH  037%=      5-min Rain = 0
KPVS 242255Z 11005KT 29/13 A2969 RMK A01 T02900127  RH  037%=      5-min Rain = 0
KPVS 242300Z 12005KT 29/12 A297 RMK A01 T02890123  RH  036%=      5-min Rain = 0
KPVS 242305Z 12004KT 29/13 A297 RMK A01 T02890125  RH  037%=      5-min Rain = 0
KPVS 242310Z 16006G11KT 29/13 A2971 RMK A01 T02890129  RH  038%=      5-min Rain = 0
KPVS 242315Z 18006KT 29/13 A2971 RMK A01 T02880125  RH  037%=      5-min Rain = 0
KPVS 242320Z 16008KT 29/13 A2971 RMK A01 T02870126  RH  038%=      5-min Rain = 0
KPVS 242325Z 15008KT 29/13 A2971 RMK A01 T02860128  RH  039%=      5-min Rain = 0
KPVS 242330Z 16009G14KT 29/13 A2971 RMK A01 T02850127  RH  038%=      5-min Rain = 0
KPVS 242335Z 18011G17KT 28/11 A297 RMK A01 T02830114  RH  036%=      5-min Rain = 0
KPVS 242340Z 21012G17KT 27/06 A2971 RMK A01 T02720063  RH  027%=      5-min Rain = 0
KPVS 242345Z 20012G18KT 26/06 A2971 RMK A01 T02630064  RH  029%=      5-min Rain = 0
KPVS 242350Z 20013KT 25/09 A2972 RMK A01 T02510089  RH  036%=      5-min Rain = 0
KPVS 242355Z 21013KT 23/12 A2974 RMK A01 T02330121  RH  051%=      5-min Rain = 0
KPVS 250000Z 24017G27KT 22/12 A2976 RMK A01 T02150115  RH  054%=      5-min Rain = 0.04
KPVS 250005Z 21015G27KT 22/08 A2977 RMK A01 T02150083  RH  043%=      5-min Rain = 0.05
KPVS 250010Z 24010KT 21/10 A2978 RMK A01 T02110097  RH  049%=      5-min Rain = 0.02
KPVS 250015Z 27009G16KT 21/09 A2978 RMK A01 T02110093  RH  048%=      5-min Rain = 0.01
KPVS 250020Z 28007G12KT 22/09 A2978 RMK A01 T02200089  RH  044%=      5-min Rain = 0
KPVS 250025Z 25013G24KT 22/08 A2979 RMK A01 T02210084  RH  042%=      5-min Rain = 0
KPVS 250030Z 24011G23KT 22/09 A298 RMK A01 T02150094  RH  047%=      5-min Rain = 0
KPVS 250035Z 29012G23KT 22/08 A2979 RMK A01 T02190083  RH  042%=      5-min Rain = 0.01
KPVS 250040Z 32007G12KT 21/09 A2977 RMK A01 T02120087  RH  046%=      5-min Rain = 0
KPVS 250045Z 29007KT 22/08 A2976 RMK A01 T02170083  RH  043%=      5-min Rain = 0.01
KPVS 250050Z 22007G12KT 22/08 A2976 RMK A01 T02230075  RH  039%=      5-min Rain = 0
KPVS 250055Z 02003KT 23/07 A2975 RMK A01 T02280067  RH  036%=      5-min Rain = 0
KPVS 250100Z 06006KT 23/07 A2972 RMK A01 T02300073  RH  037%=      5-min Rain = 0
KPVS 250105Z 07010KT 22/10 A297 RMK A01 T02180102  RH  049%=      5-min Rain = 0
KPVS 250110Z 08008G17KT 22/10 A297 RMK A01 T02160098  RH  048%=      5-min Rain = 0
KPVS 250115Z 09015G20KT 21/09 A2969 RMK A01 T02140092  RH  046%=      5-min Rain = 0
KPVS 250120Z 11012G20KT 22/08 A2969 RMK A01 T02200078  RH  041%=      5-min Rain = 0
KPVS 250125Z 09011G17KT 23/07 A2968 RMK A01 T02320068  RH  035%=      5-min Rain = 0
KPVS 250130Z 07017G30KT 24/06 A2965 RMK A01 T02370059  RH  033%=      5-min Rain = 0
KPVS 250135Z 05017G25KT 24/08 A2963 RMK A01 T02360079  RH  037%=      5-min Rain = 0
KPVS 250140Z 04012KT 23/08 A2964 RMK A01 T02310079  RH  038%=      5-min Rain = 0
KPVS 250145Z 07017G26KT 23/08 A2964 RMK A01 T02300076  RH  038%=      5-min Rain = 0
KPVS 250150Z 07011G17KT 23/08 A2965 RMK A01 T02260082  RH  040%=      5-min Rain = 0
KPVS 250155Z 06011G16KT 23/08 A2965 RMK A01 T02260078  RH  039%=      5-min Rain = 0
KPVS 250200Z 06012G17KT 23/08 A2964 RMK A01 T02290076  RH  038%=      5-min Rain = 0
KPVS 250205Z 07012KT 22/09 A2965 RMK A01 T02220086  RH  042%=      5-min Rain = 0
KPVS 250210Z 08010G15KT 22/09 A2966 RMK A01 T02150091  RH  046%=      5-min Rain = 0
KPVS 250215Z 10009KT 21/09 A2967 RMK A01 T02120093  RH  047%=      5-min Rain = 0
KPVS 250220Z 10008KT 21/10 A2967 RMK A01 T02090096  RH  049%=      5-min Rain = 0
KPVS 250225Z 10006KT 21/10 A2967 RMK A01 T02080097  RH  050%=      5-min Rain = 0
KPVS 250230Z 11006KT 21/10 A2968 RMK A01 T02070099  RH  051%=      5-min Rain = 0
KPVS 250235Z 10006KT 21/10 A2968 RMK A01 T02060100  RH  052%=      5-min Rain = 0
KPVS 250240Z 09007KT 20/10 A2968 RMK A01 T02040103  RH  053%=      5-min Rain = 0
KPVS 250245Z 10007KT 20/11 A2969 RMK A01 T02030105  RH  054%=      5-min Rain = 0
KPVS 250250Z 11007KT 20/11 A2969 RMK A01 T02030106  RH  055%=      5-min Rain = 0
KPVS 250255Z 16013G22KT 20/11 A297 RMK A01 T02000114  RH  059%=      5-min Rain = 0
KPVS 250300Z 12011G19KT 20/11 A2969 RMK A01 T01960109  RH  058%=      5-min Rain = 0
KPVS 250305Z 10010KT 20/10 A2968 RMK A01 T02030101  RH  053%=      5-min Rain = 0
KPVS 250310Z 15011G18KT 21/10 A2969 RMK A01 T02050102  RH  053%=      5-min Rain = 0
KPVS 250315Z 12013G19KT 20/11 A2969 RMK A01 T02030106  RH  055%=      5-min Rain = 0
KPVS 250320Z 12011KT 20/11 A2968 RMK A01 T01990108  RH  057%=      5-min Rain = 0
KPVS 250325Z 14012G18KT 20/11 A2969 RMK A01 T01960114  RH  060%=      5-min Rain = 0
KPVS 250330Z 12012G17KT 19/12 A2969 RMK A01 T01910117  RH  063%=      5-min Rain = 0
KPVS 250335Z 14012G17KT 19/12 A297 RMK A01 T01880120  RH  066%=      5-min Rain = 0
KPVS 250340Z 13009G14KT 18/12 A2971 RMK A01 T01840123  RH  069%=      5-min Rain = 0
KPVS 250345Z 12010G18KT 18/12 A297 RMK A01 T01810123  RH  070%=      5-min Rain = 0
KPVS 250350Z 12010G15KT 18/12 A2971 RMK A01 T01800123  RH  070%=      5-min Rain = 0
KPVS 250355Z 12012KT 18/12 A2972 RMK A01 T01810123  RH  070%=      5-min Rain = 0
KPVS 250400Z 11011KT 18/12 A2972 RMK A01 T01810121  RH  069%=      5-min Rain = 0
KPVS 250405Z 11011G17KT 18/12 A2972 RMK A01 T01820120  RH  068%=      5-min Rain = 0
KPVS 250410Z 11013G21KT 18/12 A2972 RMK A01 T01830117  RH  066%=      5-min Rain = 0
KPVS 250415Z 10013G21KT 18/12 A2972 RMK A01 T01830117  RH  066%=      5-min Rain = 0
KPVS 250420Z 10011G16KT 18/12 A2972 RMK A01 T01800119  RH  069%=      5-min Rain = 0
KPVS 250425Z 10011G19KT 18/12 A2973 RMK A01 T01770120  RH  070%=      5-min Rain = 0
KPVS 250430Z 11010G15KT 17/12 A2973 RMK A01 T01740122  RH  072%=      5-min Rain = 0
KPVS 250435Z 12011KT 17/12 A2974 RMK A01 T01730123  RH  074%=      5-min Rain = 0
KPVS 250440Z 12011G16KT 17/12 A2974 RMK A01 T01700124  RH  076%=      5-min Rain = 0
KPVS 250445Z 12011G18KT 17/13 A2975 RMK A01 T01680125  RH  077%=      5-min Rain = 0
KPVS 250450Z 13014G20KT 17/13 A2976 RMK A01 T01670126  RH  078%=      5-min Rain = 0
KPVS 250455Z 13014G20KT 17/13 A2976 RMK A01 T01650127  RH  080%=      5-min Rain = 0

Page generated in 0.0519 seconds.